createdAt,value
2022-08-28T00:03:34.124Z,21.81
2022-08-28T00:08:35.360Z,22.49
2022-08-28T00:13:36.615Z,22.44
2022-08-28T00:18:38.407Z,21.37
2022-08-28T00:23:42.697Z,20.69
2022-08-28T00:28:44.673Z,20.26
2022-08-28T00:33:48.097Z,19.94
2022-08-28T00:38:49.724Z,19.67
2022-08-28T00:44:24.155Z,19.45
2022-08-28T00:49:31.817Z,19.25
2022-08-28T00:54:37.739Z,19.11
2022-08-28T00:59:38.911Z,18.99
2022-08-28T01:04:40.225Z,19.94
2022-08-28T01:09:46.880Z,22.34
2022-08-28T01:14:52.753Z,22.63
2022-08-28T01:20:02.632Z,21.31
2022-08-28T01:25:10.567Z,20.51
2022-08-28T01:30:17.269Z,20.02
2022-08-28T01:35:25.280Z,19.62
2022-08-28T01:40:36.277Z,19.30
2022-08-28T01:45:40.228Z,19.02
2022-08-28T01:50:42.221Z,18.77
2022-08-28T01:55:43.775Z,19.41
2022-08-28T02:00:45.187Z,19.97
2022-08-28T02:05:46.635Z,19.20
2022-08-28T02:10:48.482Z,18.74
2022-08-28T02:15:51.111Z,18.50
2022-08-28T02:20:52.655Z,19.94
2022-08-28T02:25:53.970Z,21.76
2022-08-28T02:30:55.172Z,21.78
2022-08-28T02:35:56.542Z,20.58
2022-08-28T02:40:57.929Z,19.84
2022-08-28T02:45:59.149Z,19.34
2022-08-28T02:51:03.627Z,18.96
2022-08-28T02:56:05.509Z,18.66
2022-08-28T03:01:10.104Z,18.44
2022-08-28T03:06:12.395Z,18.28
2022-08-28T03:11:13.864Z,19.02
2022-08-28T03:16:15.135Z,20.70
2022-08-28T03:21:16.668Z,21.07
2022-08-28T03:26:19.625Z,19.99
2022-08-28T03:31:24.323Z,19.30
2022-08-28T03:36:27.755Z,18.83
2022-08-28T03:41:30.709Z,18.51
2022-08-28T03:46:33.524Z,18.26
2022-08-28T03:51:35.310Z,18.97
2022-08-28T03:56:36.427Z,20.81
2022-08-28T04:01:37.667Z,21.03
2022-08-28T04:06:38.867Z,19.95
2022-08-28T04:11:43.479Z,19.33
2022-08-28T04:16:44.639Z,18.91
2022-08-28T04:21:45.852Z,18.65
2022-08-28T04:26:46.992Z,18.52
2022-08-28T04:31:48.994Z,18.43
2022-08-28T04:36:51.184Z,18.38
2022-08-28T04:41:55.079Z,19.22
2022-08-28T04:46:57.928Z,20.98
2022-08-28T04:52:00.296Z,21.25
2022-08-28T04:57:02.026Z,20.47
2022-08-28T05:02:07.663Z,20.00
2022-08-28T05:07:08.921Z,19.71
2022-08-28T05:12:16.277Z,19.53
2022-08-28T05:17:17.551Z,19.46
2022-08-28T05:22:18.731Z,19.46
2022-08-28T05:27:20.013Z,19.53
2022-08-28T05:32:21.204Z,19.65
2022-08-28T05:37:22.416Z,21.04
2022-08-28T05:42:23.505Z,22.58
2022-08-28T05:47:31.993Z,22.98
2022-08-28T05:52:34.318Z,23.29
2022-08-28T05:57:35.476Z,24.48
2022-08-28T06:02:36.641Z,25.83
2022-08-28T06:07:37.849Z,27.13
2022-08-28T06:12:39.069Z,28.20
2022-08-28T06:17:41.659Z,29.20
2022-08-28T06:22:43.161Z,30.11
2022-08-28T06:27:44.315Z,30.94
2022-08-28T06:32:47.456Z,31.68
2022-08-28T06:37:49.216Z,32.40
2022-08-28T06:42:50.883Z,33.13
2022-08-28T06:47:52.031Z,33.97
2022-08-28T06:52:54.782Z,34.77
2022-08-28T06:57:55.981Z,35.32
2022-08-28T07:02:58.580Z,35.83
2022-08-28T07:08:00.136Z,36.28
2022-08-28T07:13:02.816Z,36.65
2022-08-28T07:18:03.938Z,37.09
2022-08-28T07:23:05.269Z,37.42
2022-08-28T07:28:07.632Z,37.72
2022-08-28T07:33:08.813Z,37.86
2022-08-28T07:38:10.808Z,37.72
2022-08-28T07:43:30.616Z,37.54
2022-08-28T07:48:36.195Z,37.40
2022-08-28T07:53:37.419Z,37.11
2022-08-28T07:58:38.941Z,36.79
2022-08-28T08:03:40.139Z,36.24
2022-08-28T08:08:41.667Z,35.71
2022-08-28T08:13:45.560Z,35.12
2022-08-28T08:18:48.257Z,34.54
2022-08-28T08:23:49.657Z,33.91
2022-08-28T08:28:51.708Z,33.33
2022-08-28T08:33:56.433Z,32.86
2022-08-28T08:38:59.272Z,32.45
2022-08-28T08:44:15.509Z,32.23
2022-08-28T08:49:19.829Z,32.12
2022-08-28T08:54:23.894Z,32.02
2022-08-28T08:59:38.149Z,31.92
2022-08-28T09:05:01.362Z,31.87
2022-08-28T09:10:06.968Z,31.88
2022-08-28T09:15:25.537Z,31.94
2022-08-28T09:20:32.909Z,32.06
2022-08-28T09:26:01.910Z,32.17
2022-08-28T09:31:12.053Z,32.24
2022-08-28T09:36:31.904Z,32.26
2022-08-28T09:42:36.975Z,32.15
2022-08-28T09:47:48.069Z,31.96
2022-08-28T09:52:51.556Z,31.77
2022-08-28T09:57:53.883Z,31.64
2022-08-28T10:03:14.124Z,31.46
2022-08-28T10:08:23.491Z,31.48
2022-08-28T10:13:39.649Z,31.60
2022-08-28T10:18:59.593Z,31.59
2022-08-28T10:24:26.665Z,31.66
2022-08-28T10:30:08.848Z,31.71
2022-08-28T10:35:50.297Z,31.70
2022-08-28T10:40:51.310Z,31.79
2022-08-28T10:45:54.172Z,31.87
2022-08-28T10:51:00.848Z,31.98
2022-08-28T10:56:14.960Z,32.04
2022-08-28T11:01:37.824Z,32.00
2022-08-28T11:06:51.430Z,32.01
2022-08-28T11:12:02.054Z,32.12
2022-08-28T11:17:08.369Z,32.14
2022-08-28T11:22:17.107Z,32.20
2022-08-28T11:27:32.330Z,32.31
2022-08-28T11:32:33.387Z,32.39
2022-08-28T11:37:54.132Z,32.39
2022-08-28T11:43:14.128Z,32.31
2022-08-28T11:48:36.745Z,32.30
2022-08-28T11:54:02.812Z,32.36
2022-08-28T11:59:25.683Z,32.44
2022-08-28T12:04:42.187Z,32.41
2022-08-28T12:09:49.114Z,32.23
2022-08-28T12:15:00.715Z,32.23
2022-08-28T12:20:09.674Z,32.06
2022-08-28T12:25:23.457Z,31.88
2022-08-28T12:30:34.550Z,31.76
2022-08-28T12:35:36.184Z,31.90
2022-08-28T12:40:37.348Z,32.09
2022-08-28T12:46:00.331Z,32.28
2022-08-28T12:51:08.391Z,32.59
2022-08-28T12:56:12.295Z,32.89
2022-08-28T13:01:23.043Z,33.09
2022-08-28T13:06:29.045Z,33.07
2022-08-28T13:11:36.160Z,32.81
2022-08-28T13:16:41.077Z,32.63
2022-08-28T13:21:51.141Z,32.43
2022-08-28T13:27:20.755Z,32.26
2022-08-28T13:32:22.654Z,32.28
2022-08-28T13:37:43.017Z,32.25
2022-08-28T13:42:45.834Z,32.11
2022-08-28T13:47:47.024Z,31.89
2022-08-28T13:52:48.210Z,31.73
2022-08-28T13:57:49.426Z,31.65
2022-08-28T14:03:08.957Z,31.68
2022-08-28T14:08:10.315Z,31.64
2022-08-28T14:13:12.133Z,31.50
2022-08-28T14:18:13.716Z,31.35
2022-08-28T14:23:15.287Z,31.23
2022-08-28T14:28:17.078Z,31.08
2022-08-28T14:33:18.837Z,30.91
2022-08-28T14:38:22.433Z,30.71
2022-08-28T14:43:24.068Z,30.50
2022-08-28T14:48:25.914Z,30.43
2022-08-28T14:53:27.204Z,30.53
2022-08-28T14:58:31.784Z,30.67
2022-08-28T15:03:33.479Z,30.85
2022-08-28T15:08:36.127Z,31.04
2022-08-28T15:13:37.399Z,31.24
2022-08-28T15:18:40.512Z,31.46
2022-08-28T15:23:43.008Z,31.61
2022-08-28T15:28:44.857Z,31.74
2022-08-28T15:33:46.037Z,31.77
2022-08-28T15:39:06.553Z,31.65
2022-08-28T15:44:10.067Z,31.33
2022-08-28T15:49:17.603Z,30.99
2022-08-28T15:54:22.218Z,30.81
2022-08-28T15:59:23.655Z,30.58
2022-08-28T16:04:27.073Z,29.97
2022-08-28T16:09:28.860Z,29.20
2022-08-28T16:14:31.986Z,28.54
2022-08-28T16:19:33.108Z,27.99
2022-08-28T16:24:34.541Z,27.47
2022-08-28T16:29:36.391Z,27.08
2022-08-28T16:34:39.124Z,26.79
2022-08-28T16:39:40.936Z,26.55
2022-08-28T16:44:42.042Z,26.31
2022-08-28T16:49:43.413Z,25.82
2022-08-28T16:54:47.484Z,25.81
2022-08-28T16:59:52.883Z,25.93
2022-08-28T17:04:57.428Z,25.59
2022-08-28T17:09:59.382Z,26.58
2022-08-28T17:15:00.727Z,27.13
2022-08-28T17:20:04.734Z,27.47
2022-08-28T17:25:13.006Z,27.58
2022-08-28T17:30:14.943Z,27.23
2022-08-28T17:35:16.595Z,26.05
2022-08-28T17:40:17.848Z,25.17
2022-08-28T17:45:19.518Z,25.13
2022-08-28T17:50:21.230Z,26.13
2022-08-28T17:55:22.541Z,26.59
2022-08-28T18:00:24.945Z,26.90
2022-08-28T18:05:26.383Z,27.19
2022-08-28T18:10:32.763Z,27.25
2022-08-28T18:15:34.110Z,27.12
2022-08-28T18:20:39.573Z,25.96
2022-08-28T18:25:40.915Z,25.38
2022-08-28T18:30:46.856Z,25.77
2022-08-28T18:35:56.409Z,26.22
2022-08-28T18:40:58.992Z,26.69
2022-08-28T18:46:01.814Z,27.02
2022-08-28T18:51:06.862Z,27.12
2022-08-28T18:56:08.644Z,27.18
2022-08-28T19:01:12.012Z,27.24
2022-08-28T19:06:14.343Z,26.94
2022-08-28T19:11:15.576Z,25.63
2022-08-28T19:16:19.714Z,25.18
2022-08-28T19:21:21.108Z,25.96
2022-08-28T19:26:24.008Z,26.32
2022-08-28T19:31:26.119Z,26.52
2022-08-28T19:36:29.808Z,26.82
2022-08-28T19:41:31.767Z,26.77
2022-08-28T19:46:35.271Z,26.84
2022-08-28T19:51:37.895Z,26.97
2022-08-28T19:56:39.974Z,27.03
2022-08-28T20:01:44.023Z,27.10
2022-08-28T20:06:45.469Z,26.73
2022-08-28T20:11:48.291Z,25.39
2022-08-28T20:16:50.786Z,25.00
2022-08-28T20:21:51.976Z,25.81
2022-08-28T20:26:53.122Z,26.19
2022-08-28T20:31:54.337Z,26.40
2022-08-28T20:36:55.521Z,26.50
2022-08-28T20:41:56.882Z,26.56
2022-08-28T20:46:58.143Z,26.57
2022-08-28T20:52:01.240Z,26.65
2022-08-28T20:57:08.998Z,26.77
2022-08-28T21:02:14.245Z,26.82
2022-08-28T21:07:18.115Z,26.52
2022-08-28T21:12:19.253Z,25.12
2022-08-28T21:17:28.704Z,24.76
2022-08-28T21:22:33.006Z,25.67
2022-08-28T21:27:37.317Z,26.13
2022-08-28T21:32:39.543Z,26.39
2022-08-28T21:37:41.428Z,26.53
2022-08-28T21:42:43.678Z,26.49
2022-08-28T21:47:44.754Z,26.35
2022-08-28T21:52:46.283Z,26.29
2022-08-28T21:57:47.988Z,26.15
2022-08-28T22:02:49.733Z,26.01
2022-08-28T22:07:51.196Z,25.88
2022-08-28T22:12:52.332Z,25.82
2022-08-28T22:17:54.039Z,25.69
2022-08-28T22:23:13.940Z,25.44
2022-08-28T22:28:15.275Z,25.25
2022-08-28T22:33:16.543Z,25.18
2022-08-28T22:38:19.792Z,25.08
2022-08-28T22:43:21.555Z,24.90
2022-08-28T22:48:22.710Z,24.74
2022-08-28T22:53:24.082Z,24.64
2022-08-28T22:58:26.803Z,24.54
2022-08-28T23:03:28.054Z,24.42
2022-08-28T23:08:33.706Z,24.45
2022-08-28T23:13:36.084Z,24.57
2022-08-28T23:19:06.758Z,24.61
2022-08-28T23:23:59.564Z,24.62
2022-08-28T23:29:00.786Z,24.57
2022-08-28T23:34:03.373Z,24.57
2022-08-28T23:39:06.345Z,24.48
2022-08-28T23:44:09.169Z,24.51
2022-08-28T23:49:12.059Z,24.74
2022-08-28T23:54:13.907Z,24.90
2022-08-28T23:59:15.035Z,24.94
